sensor_id;sensor_type;location;lat;lon;timestamp;pressure;altitude;pressure_sealevel;temperature;humidity
60642;BME280;46837;52.446;-1.930;2022-12-18T00:00:09;100635.04;;;-0.26;81.84
60642;BME280;46837;52.446;-1.930;2022-12-18T00:01:20;100634.31;;;-0.27;81.85
60642;BME280;46837;52.446;-1.930;2022-12-18T00:02:09;100637.82;;;-0.26;81.84
60642;BME280;46837;52.446;-1.930;2022-12-18T00:03:09;100635.62;;;-0.23;81.98
60642;BME280;46837;52.446;-1.930;2022-12-18T00:05:09;100632.16;;;-0.20;81.98
60642;BME280;46837;52.446;-1.930;2022-12-18T00:06:09;100633.41;;;-0.20;82.14
60642;BME280;46837;52.446;-1.930;2022-12-18T00:07:09;100634.16;;;-0.18;82.04
60642;BME280;46837;52.446;-1.930;2022-12-18T00:08:09;100636.41;;;-0.17;82.01
60642;BME280;46837;52.446;-1.930;2022-12-18T00:09:09;100636.30;;;-0.16;82.13
60642;BME280;46837;52.446;-1.930;2022-12-18T00:10:09;100637.03;;;-0.15;81.94
60642;BME280;46837;52.446;-1.930;2022-12-18T00:11:11;100639.85;;;-0.13;81.88
60642;BME280;46837;52.446;-1.930;2022-12-18T00:12:09;100641.03;;;-0.12;81.79
60642;BME280;46837;52.446;-1.930;2022-12-18T00:13:09;100643.25;;;-0.10;81.82
60642;BME280;46837;52.446;-1.930;2022-12-18T00:14:09;100639.66;;;-0.12;81.63
60642;BME280;46837;52.446;-1.930;2022-12-18T00:15:09;100638.31;;;-0.15;81.37
60642;BME280;46837;52.446;-1.930;2022-12-18T00:16:10;100638.50;;;-0.19;81.29
60642;BME280;46837;52.446;-1.930;2022-12-18T00:17:09;100636.12;;;-0.20;81.45
60642;BME280;46837;52.446;-1.930;2022-12-18T00:18:09;100637.60;;;-0.21;81.41
60642;BME280;46837;52.446;-1.930;2022-12-18T00:19:09;100636.96;;;-0.21;81.54
60642;BME280;46837;52.446;-1.930;2022-12-18T00:20:09;100636.84;;;-0.30;81.25
60642;BME280;46837;52.446;-1.930;2022-12-18T00:21:10;100638.36;;;-0.30;81.61
60642;BME280;46837;52.446;-1.930;2022-12-18T00:22:09;100639.18;;;-0.35;81.48
60642;BME280;46837;52.446;-1.930;2022-12-18T00:23:09;100641.28;;;-0.35;81.71
60642;BME280;46837;52.446;-1.930;2022-12-18T00:24:09;100642.02;;;-0.39;81.64
60642;BME280;46837;52.446;-1.930;2022-12-18T00:25:09;100642.29;;;-0.41;81.75
60642;BME280;46837;52.446;-1.930;2022-12-18T00:26:12;100644.66;;;-0.43;81.87
60642;BME280;46837;52.446;-1.930;2022-12-18T00:27:09;100648.56;;;-0.44;81.78
60642;BME280;46837;52.446;-1.930;2022-12-18T00:28:09;100648.45;;;-0.48;81.68
60642;BME280;46837;52.446;-1.930;2022-12-18T00:29:12;100646.95;;;-0.51;81.67
60642;BME280;46837;52.446;-1.930;2022-12-18T00:30:09;100648.09;;;-0.55;81.72
60642;BME280;46837;52.446;-1.930;2022-12-18T00:31:10;100650.01;;;-0.57;81.87
60642;BME280;46837;52.446;-1.930;2022-12-18T00:32:09;100647.09;;;-0.60;81.83
60642;BME280;46837;52.446;-1.930;2022-12-18T00:33:09;100648.48;;;-0.63;81.85
60642;BME280;46837;52.446;-1.930;2022-12-18T00:34:11;100650.13;;;-0.62;82.04
60642;BME280;46837;52.446;-1.930;2022-12-18T00:35:09;100649.53;;;-0.63;81.95
60642;BME280;46837;52.446;-1.930;2022-12-18T00:36:12;100648.21;;;-0.68;81.83
60642;BME280;46837;52.446;-1.930;2022-12-18T00:37:09;100648.77;;;-0.73;81.92
60642;BME280;46837;52.446;-1.930;2022-12-18T00:38:09;100646.24;;;-0.73;82.18
60642;BME280;46837;52.446;-1.930;2022-12-18T00:39:09;100650.05;;;-0.76;81.92
60642;BME280;46837;52.446;-1.930;2022-12-18T00:40:09;100650.10;;;-0.79;82.07
60642;BME280;46837;52.446;-1.930;2022-12-18T00:41:09;100646.86;;;-0.77;82.25
60642;BME280;46837;52.446;-1.930;2022-12-18T00:42:13;100644.50;;;-0.80;82.15
60642;BME280;46837;52.446;-1.930;2022-12-18T00:43:09;100645.84;;;-0.83;82.00
60642;BME280;46837;52.446;-1.930;2022-12-18T00:44:10;100644.96;;;-0.83;82.60
60642;BME280;46837;52.446;-1.930;2022-12-18T00:45:09;100647.54;;;-0.84;82.49
60642;BME280;46837;52.446;-1.930;2022-12-18T00:46:09;100646.87;;;-0.86;82.45
60642;BME280;46837;52.446;-1.930;2022-12-18T00:47:09;100652.21;;;-0.88;82.66
60642;BME280;46837;52.446;-1.930;2022-12-18T00:48:09;100654.86;;;-0.89;82.60
60642;BME280;46837;52.446;-1.930;2022-12-18T00:49:11;100653.09;;;-0.89;82.47
60642;BME280;46837;52.446;-1.930;2022-12-18T00:50:09;100654.24;;;-0.91;82.41
60642;BME280;46837;52.446;-1.930;2022-12-18T00:51:09;100649.95;;;-0.93;82.42
60642;BME280;46837;52.446;-1.930;2022-12-18T00:52:09;100649.38;;;-0.95;82.67
60642;BME280;46837;52.446;-1.930;2022-12-18T00:53:09;100644.29;;;-0.92;82.93
60642;BME280;46837;52.446;-1.930;2022-12-18T00:54:09;100643.70;;;-0.90;82.79
60642;BME280;46837;52.446;-1.930;2022-12-18T00:55:09;100641.53;;;-0.91;82.50
60642;BME280;46837;52.446;-1.930;2022-12-18T00:56:09;100639.68;;;-0.90;82.42
60642;BME280;46837;52.446;-1.930;2022-12-18T00:57:09;100634.19;;;-0.87;82.59
60642;BME280;46837;52.446;-1.930;2022-12-18T00:58:09;100633.41;;;-0.89;82.33
60642;BME280;46837;52.446;-1.930;2022-12-18T00:59:09;100631.27;;;-0.90;82.49
60642;BME280;46837;52.446;-1.930;2022-12-18T01:00:10;100633.59;;;-0.87;82.61
60642;BME280;46837;52.446;-1.930;2022-12-18T01:01:09;100632.14;;;-0.87;82.46
60642;BME280;46837;52.446;-1.930;2022-12-18T01:02:09;100629.72;;;-0.87;82.35
60642;BME280;46837;52.446;-1.930;2022-12-18T01:03:09;100631.34;;;-0.87;82.37
60642;BME280;46837;52.446;-1.930;2022-12-18T01:04:09;100629.18;;;-0.90;82.12
60642;BME280;46837;52.446;-1.930;2022-12-18T01:05:09;100629.63;;;-0.89;82.30
60642;BME280;46837;52.446;-1.930;2022-12-18T01:06:09;100629.03;;;-0.88;82.34
60642;BME280;46837;52.446;-1.930;2022-12-18T01:07:09;100628.16;;;-0.91;82.32
60642;BME280;46837;52.446;-1.930;2022-12-18T01:08:09;100628.21;;;-0.90;82.42
60642;BME280;46837;52.446;-1.930;2022-12-18T01:09:09;100626.50;;;-0.87;82.50
60642;BME280;46837;52.446;-1.930;2022-12-18T01:10:10;100624.26;;;-0.86;82.38
60642;BME280;46837;52.446;-1.930;2022-12-18T01:11:09;100616.45;;;-0.86;82.38
60642;BME280;46837;52.446;-1.930;2022-12-18T01:12:09;100612.34;;;-0.87;82.25
60642;BME280;46837;52.446;-1.930;2022-12-18T01:13:09;100609.18;;;-0.91;82.06
60642;BME280;46837;52.446;-1.930;2022-12-18T01:14:09;100606.08;;;-0.96;82.09
60642;BME280;46837;52.446;-1.930;2022-12-18T01:15:09;100602.05;;;-0.97;82.31
60642;BME280;46837;52.446;-1.930;2022-12-18T01:16:10;100600.16;;;-0.98;82.46
60642;BME280;46837;52.446;-1.930;2022-12-18T01:17:09;100596.27;;;-1.01;82.43
60642;BME280;46837;52.446;-1.930;2022-12-18T01:18:09;100596.47;;;-1.01;82.76
60642;BME280;46837;52.446;-1.930;2022-12-18T01:19:09;100597.76;;;-1.01;82.71
60642;BME280;46837;52.446;-1.930;2022-12-18T01:20:09;100600.98;;;-1.00;82.81
60642;BME280;46837;52.446;-1.930;2022-12-18T01:21:13;100601.64;;;-0.98;82.97
60642;BME280;46837;52.446;-1.930;2022-12-18T01:22:09;100605.95;;;-0.99;82.99
60642;BME280;46837;52.446;-1.930;2022-12-18T01:23:09;100607.12;;;-0.97;83.03
60642;BME280;46837;52.446;-1.930;2022-12-18T01:24:09;100608.70;;;-0.96;83.01
60642;BME280;46837;52.446;-1.930;2022-12-18T01:25:09;100605.89;;;-0.94;82.96
60642;BME280;46837;52.446;-1.930;2022-12-18T01:26:13;100600.98;;;-0.94;82.72
60642;BME280;46837;52.446;-1.930;2022-12-18T01:27:09;100601.44;;;-0.93;82.89
60642;BME280;46837;52.446;-1.930;2022-12-18T01:28:09;100597.54;;;-0.93;83.07
60642;BME280;46837;52.446;-1.930;2022-12-18T01:29:09;100596.30;;;-0.91;82.97
60642;BME280;46837;52.446;-1.930;2022-12-18T01:30:09;100602.11;;;-0.89;82.88
60642;BME280;46837;52.446;-1.930;2022-12-18T01:32:09;100595.84;;;-0.87;82.72
60642;BME280;46837;52.446;-1.930;2022-12-18T01:33:09;100598.71;;;-0.85;82.77
60642;BME280;46837;52.446;-1.930;2022-12-18T01:34:09;100602.79;;;-0.84;82.73
60642;BME280;46837;52.446;-1.930;2022-12-18T01:35:09;100600.72;;;-0.86;82.58
60642;BME280;46837;52.446;-1.930;2022-12-18T01:36:14;100604.75;;;-0.86;82.70
60642;BME280;46837;52.446;-1.930;2022-12-18T01:37:09;100609.42;;;-0.85;82.65
60642;BME280;46837;52.446;-1.930;2022-12-18T01:38:09;100612.75;;;-0.86;82.53
60642;BME280;46837;52.446;-1.930;2022-12-18T01:39:11;100613.92;;;-0.91;82.70
60642;BME280;46837;52.446;-1.930;2022-12-18T01:40:09;100608.70;;;-0.91;83.07
60642;BME280;46837;52.446;-1.930;2022-12-18T01:41:09;100609.74;;;-0.90;83.15
60642;BME280;46837;52.446;-1.930;2022-12-18T01:42:14;100610.97;;;-0.87;83.13
60642;BME280;46837;52.446;-1.930;2022-12-18T01:43:09;100605.95;;;-0.86;83.10
60642;BME280;46837;52.446;-1.930;2022-12-18T01:46:09;100597.71;;;-0.85;82.83
60642;BME280;46837;52.446;-1.930;2022-12-18T01:47:09;100599.88;;;-0.84;82.81
60642;BME280;46837;52.446;-1.930;2022-12-18T01:48:09;100599.50;;;-0.93;82.59
60642;BME280;46837;52.446;-1.930;2022-12-18T01:49:09;100601.02;;;-0.94;83.13
60642;BME280;46837;52.446;-1.930;2022-12-18T01:51:10;100606.81;;;-0.96;83.36
60642;BME280;46837;52.446;-1.930;2022-12-18T01:52:09;100605.73;;;-0.94;83.54
60642;BME280;46837;52.446;-1.930;2022-12-18T01:53:12;100608.89;;;-0.92;83.40
60642;BME280;46837;52.446;-1.930;2022-12-18T01:54:09;100610.19;;;-0.90;83.30
60642;BME280;46837;52.446;-1.930;2022-12-18T01:55:09;100614.50;;;-0.90;83.22
60642;BME280;46837;52.446;-1.930;2022-12-18T01:56:11;100614.04;;;-0.92;83.28
60642;BME280;46837;52.446;-1.930;2022-12-18T01:57:09;100610.71;;;-0.91;83.38
60642;BME280;46837;52.446;-1.930;2022-12-18T01:58:09;100616.88;;;-0.94;83.33
60642;BME280;46837;52.446;-1.930;2022-12-18T01:59:09;100617.09;;;-0.92;83.45
60642;BME280;46837;52.446;-1.930;2022-12-18T02:00:12;100616.33;;;-0.91;83.31
60642;BME280;46837;52.446;-1.930;2022-12-18T02:01:09;100620.15;;;-0.92;83.15
60642;BME280;46837;52.446;-1.930;2022-12-18T02:02:09;100620.97;;;-0.90;83.38
60642;BME280;46837;52.446;-1.930;2022-12-18T02:03:09;100623.56;;;-0.88;83.29
60642;BME280;46837;52.446;-1.930;2022-12-18T02:04:22;100625.83;;;-0.91;83.00
60642;BME280;46837;52.446;-1.930;2022-12-18T02:05:09;100630.83;;;-0.90;83.19
60642;BME280;46837;52.446;-1.930;2022-12-18T02:06:27;100630.66;;;-0.91;83.19
60642;BME280;46837;52.446;-1.930;2022-12-18T02:08:20;100635.01;;;-0.90;83.16
60642;BME280;46837;52.446;-1.930;2022-12-18T02:11:16;100633.17;;;-0.89;83.17
60642;BME280;46837;52.446;-1.930;2022-12-18T02:12:19;100637.04;;;-0.87;83.25
60642;BME280;46837;52.446;-1.930;2022-12-18T02:14:22;100629.20;;;-0.87;83.23
60642;BME280;46837;52.446;-1.930;2022-12-18T02:18:14;100643.98;;;-0.90;83.01
60642;BME280;46837;52.446;-1.930;2022-12-18T02:19:21;100643.18;;;-0.90;83.18
60642;BME280;46837;52.446;-1.930;2022-12-18T02:20:14;100647.22;;;-0.88;83.11
60642;BME280;46837;52.446;-1.930;2022-12-18T02:21:22;100643.60;;;-0.87;83.05
60642;BME280;46837;52.446;-1.930;2022-12-18T02:22:20;100641.85;;;-0.85;83.04
60642;BME280;46837;52.446;-1.930;2022-12-18T02:25:16;100650.17;;;-0.92;83.02
60642;BME280;46837;52.446;-1.930;2022-12-18T02:27:09;100652.96;;;-0.94;83.07
60642;BME280;46837;52.446;-1.930;2022-12-18T02:28:11;100654.35;;;-0.97;83.16
60642;BME280;46837;52.446;-1.930;2022-12-18T02:29:14;100659.19;;;-0.96;83.43
60642;BME280;46837;52.446;-1.930;2022-12-18T02:30:09;100660.01;;;-0.99;83.29
60642;BME280;46837;52.446;-1.930;2022-12-18T02:31:13;100660.56;;;-1.00;83.22
60642;BME280;46837;52.446;-1.930;2022-12-18T02:32:11;100663.89;;;-1.07;83.12
60642;BME280;46837;52.446;-1.930;2022-12-18T02:33:09;100662.46;;;-1.04;83.73
60642;BME280;46837;52.446;-1.930;2022-12-18T02:34:09;100662.48;;;-1.01;83.79
60642;BME280;46837;52.446;-1.930;2022-12-18T02:35:13;100652.91;;;-1.01;83.65
60642;BME280;46837;52.446;-1.930;2022-12-18T02:36:09;100656.30;;;-1.00;83.55
60642;BME280;46837;52.446;-1.930;2022-12-18T02:37:12;100653.04;;;-1.00;83.50
60642;BME280;46837;52.446;-1.930;2022-12-18T02:38:09;100650.79;;;-1.00;83.37
60642;BME280;46837;52.446;-1.930;2022-12-18T02:39:09;100648.48;;;-1.03;83.43
60642;BME280;46837;52.446;-1.930;2022-12-18T02:40:09;100649.60;;;-1.03;83.89
60642;BME280;46837;52.446;-1.930;2022-12-18T02:41:09;100648.48;;;-1.01;83.87
60642;BME280;46837;52.446;-1.930;2022-12-18T02:42:10;100648.03;;;-1.03;83.73
60642;BME280;46837;52.446;-1.930;2022-12-18T02:43:15;100646.73;;;-1.04;83.77
60642;BME280;46837;52.446;-1.930;2022-12-18T02:44:10;100639.64;;;-1.06;83.79
60642;BME280;46837;52.446;-1.930;2022-12-18T02:45:09;100643.88;;;-1.04;84.08
60642;BME280;46837;52.446;-1.930;2022-12-18T02:47:13;100642.93;;;-1.07;84.21
60642;BME280;46837;52.446;-1.930;2022-12-18T02:48:09;100640.22;;;-1.03;84.36
60642;BME280;46837;52.446;-1.930;2022-12-18T02:51:17;100634.01;;;-1.05;84.22
60642;BME280;46837;52.446;-1.930;2022-12-18T02:58:17;100632.27;;;-1.02;84.96
60642;BME280;46837;52.446;-1.930;2022-12-18T02:59:13;100631.70;;;-1.02;84.84
60642;BME280;46837;52.446;-1.930;2022-12-18T03:00:16;100633.54;;;-0.98;84.83
60642;BME280;46837;52.446;-1.930;2022-12-18T03:01:16;100630.59;;;-0.96;84.57
60642;BME280;46837;52.446;-1.930;2022-12-18T03:03:21;100623.82;;;-0.92;84.54
60642;BME280;46837;52.446;-1.930;2022-12-18T03:05:15;100615.69;;;-0.91;84.55
60642;BME280;46837;52.446;-1.930;2022-12-18T03:07:11;100608.88;;;-0.86;84.74
60642;BME280;46837;52.446;-1.930;2022-12-18T03:09:11;100608.11;;;-0.88;84.66
60642;BME280;46837;52.446;-1.930;2022-12-18T03:10:11;100602.40;;;-0.87;84.71
60642;BME280;46837;52.446;-1.930;2022-12-18T03:11:12;100601.58;;;-0.83;84.79
60642;BME280;46837;52.446;-1.930;2022-12-18T03:13:13;100600.29;;;-0.83;84.75
60642;BME280;46837;52.446;-1.930;2022-12-18T03:14:09;100601.30;;;-0.84;84.58
60642;BME280;46837;52.446;-1.930;2022-12-18T03:15:22;100597.98;;;-0.80;84.63
60642;BME280;46837;52.446;-1.930;2022-12-18T03:16:11;100597.20;;;-0.76;84.48
60642;BME280;46837;52.446;-1.930;2022-12-18T03:17:10;100595.86;;;-0.78;84.42
60642;BME280;46837;52.446;-1.930;2022-12-18T03:18:15;100595.21;;;-0.79;84.53
60642;BME280;46837;52.446;-1.930;2022-12-18T03:19:13;100592.28;;;-0.84;84.79
60642;BME280;46837;52.446;-1.930;2022-12-18T03:20:16;100589.44;;;-0.82;84.91
60642;BME280;46837;52.446;-1.930;2022-12-18T03:21:10;100590.49;;;-0.80;84.99
60642;BME280;46837;52.446;-1.930;2022-12-18T03:22:09;100588.12;;;-0.80;85.18
60642;BME280;46837;52.446;-1.930;2022-12-18T03:23:11;100587.71;;;-0.75;85.21
60642;BME280;46837;52.446;-1.930;2022-12-18T03:24:09;100587.02;;;-0.76;85.01
60642;BME280;46837;52.446;-1.930;2022-12-18T03:25:11;100585.34;;;-0.73;85.08
60642;BME280;46837;52.446;-1.930;2022-12-18T03:26:10;100583.26;;;-0.79;85.27
60642;BME280;46837;52.446;-1.930;2022-12-18T03:27:11;100581.95;;;-0.76;85.40
60642;BME280;46837;52.446;-1.930;2022-12-18T03:28:13;100582.89;;;-0.74;85.36
60642;BME280;46837;52.446;-1.930;2022-12-18T03:29:10;100588.36;;;-0.73;85.35
60642;BME280;46837;52.446;-1.930;2022-12-18T03:30:10;100587.65;;;-0.72;85.34
60642;BME280;46837;52.446;-1.930;2022-12-18T03:31:09;100592.59;;;-0.79;85.35
60642;BME280;46837;52.446;-1.930;2022-12-18T03:32:19;100590.55;;;-0.77;85.71
60642;BME280;46837;52.446;-1.930;2022-12-18T03:33:15;100594.15;;;-0.75;85.73
60642;BME280;46837;52.446;-1.930;2022-12-18T03:34:14;100594.10;;;-0.77;85.82
60642;BME280;46837;52.446;-1.930;2022-12-18T03:35:09;100594.41;;;-0.73;85.88
60642;BME280;46837;52.446;-1.930;2022-12-18T03:36:09;100591.66;;;-0.74;85.70
60642;BME280;46837;52.446;-1.930;2022-12-18T03:37:09;100590.76;;;-0.71;85.74
60642;BME280;46837;52.446;-1.930;2022-12-18T03:38:09;100586.72;;;-0.72;85.51
60642;BME280;46837;52.446;-1.930;2022-12-18T03:39:09;100585.28;;;-0.71;85.53
60642;BME280;46837;52.446;-1.930;2022-12-18T03:40:09;100582.26;;;-0.71;85.51
60642;BME280;46837;52.446;-1.930;2022-12-18T03:41:19;100576.00;;;-0.75;85.68
60642;BME280;46837;52.446;-1.930;2022-12-18T03:44:19;100565.07;;;-0.71;85.91
60642;BME280;46837;52.446;-1.930;2022-12-18T03:45:15;100560.89;;;-0.70;85.90
60642;BME280;46837;52.446;-1.930;2022-12-18T03:48:17;100558.18;;;-0.67;85.71
60642;BME280;46837;52.446;-1.930;2022-12-18T03:49:15;100554.33;;;-0.64;85.78
60642;BME280;46837;52.446;-1.930;2022-12-18T03:50:15;100553.18;;;-0.67;85.54
60642;BME280;46837;52.446;-1.930;2022-12-18T03:51:14;100552.52;;;-0.63;85.84
60642;BME280;46837;52.446;-1.930;2022-12-18T03:52:13;100550.24;;;-0.61;85.78
60642;BME280;46837;52.446;-1.930;2022-12-18T03:53:18;100548.45;;;-0.63;85.60
60642;BME280;46837;52.446;-1.930;2022-12-18T03:54:09;100547.18;;;-0.60;85.70
60642;BME280;46837;52.446;-1.930;2022-12-18T03:55:09;100546.40;;;-0.63;85.89
60642;BME280;46837;52.446;-1.930;2022-12-18T03:56:09;100540.64;;;-0.65;86.08
60642;BME280;46837;52.446;-1.930;2022-12-18T03:57:16;100535.82;;;-0.62;86.29
60642;BME280;46837;52.446;-1.930;2022-12-18T03:58:09;100534.54;;;-0.59;86.14
60642;BME280;46837;52.446;-1.930;2022-12-18T03:59:09;100530.56;;;-0.58;85.98
60642;BME280;46837;52.446;-1.930;2022-12-18T04:00:13;100535.93;;;-0.55;85.86
60642;BME280;46837;52.446;-1.930;2022-12-18T04:01:09;100528.51;;;-0.57;85.67
60642;BME280;46837;52.446;-1.930;2022-12-18T04:02:09;100526.65;;;-0.59;85.78
60642;BME280;46837;52.446;-1.930;2022-12-18T04:03:09;100526.84;;;-0.62;85.81
60642;BME280;46837;52.446;-1.930;2022-12-18T04:04:09;100525.16;;;-0.59;85.96
60642;BME280;46837;52.446;-1.930;2022-12-18T04:05:09;100527.28;;;-0.62;85.75
60642;BME280;46837;52.446;-1.930;2022-12-18T04:06:09;100523.93;;;-0.64;85.92
60642;BME280;46837;52.446;-1.930;2022-12-18T04:07:09;100527.52;;;-0.64;86.14
60642;BME280;46837;52.446;-1.930;2022-12-18T04:08:09;100527.40;;;-0.63;86.11
60642;BME280;46837;52.446;-1.930;2022-12-18T04:09:09;100526.76;;;-0.63;86.08
60642;BME280;46837;52.446;-1.930;2022-12-18T04:10:09;100524.11;;;-0.62;86.14
60642;BME280;46837;52.446;-1.930;2022-12-18T04:11:09;100518.28;;;-0.59;86.03
60642;BME280;46837;52.446;-1.930;2022-12-18T04:12:09;100512.96;;;-0.60;85.86
60642;BME280;46837;52.446;-1.930;2022-12-18T04:13:09;100506.23;;;-0.63;85.95
60642;BME280;46837;52.446;-1.930;2022-12-18T04:14:09;100509.65;;;-0.63;86.32
60642;BME280;46837;52.446;-1.930;2022-12-18T04:15:09;100504.78;;;-0.63;86.49
60642;BME280;46837;52.446;-1.930;2022-12-18T04:16:09;100506.00;;;-0.60;86.40
60642;BME280;46837;52.446;-1.930;2022-12-18T04:17:09;100499.12;;;-0.68;86.58
60642;BME280;46837;52.446;-1.930;2022-12-18T04:18:09;100504.66;;;-0.71;86.88
60642;BME280;46837;52.446;-1.930;2022-12-18T04:19:09;100499.19;;;-0.71;87.01
60642;BME280;46837;52.446;-1.930;2022-12-18T04:20:09;100496.51;;;-0.67;87.02
60642;BME280;46837;52.446;-1.930;2022-12-18T04:21:09;100490.88;;;-0.65;86.83
60642;BME280;46837;52.446;-1.930;2022-12-18T04:22:09;100489.33;;;-0.61;86.71
60642;BME280;46837;52.446;-1.930;2022-12-18T04:23:09;100483.82;;;-0.58;86.48
60642;BME280;46837;52.446;-1.930;2022-12-18T04:24:09;100481.48;;;-0.61;86.36
60642;BME280;46837;52.446;-1.930;2022-12-18T04:25:12;100479.45;;;-0.65;86.46
60642;BME280;46837;52.446;-1.930;2022-12-18T04:26:09;100474.66;;;-0.65;86.66
60642;BME280;46837;52.446;-1.930;2022-12-18T04:27:09;100474.02;;;-0.65;86.71
60642;BME280;46837;52.446;-1.930;2022-12-18T04:28:09;100470.67;;;-0.66;86.84
60642;BME280;46837;52.446;-1.930;2022-12-18T04:29:11;100468.02;;;-0.67;86.90
60642;BME280;46837;52.446;-1.930;2022-12-18T04:30:09;100468.25;;;-0.66;86.95
60642;BME280;46837;52.446;-1.930;2022-12-18T04:31:09;100467.12;;;-0.68;86.96
60642;BME280;46837;52.446;-1.930;2022-12-18T04:32:09;100465.12;;;-0.66;87.24
60642;BME280;46837;52.446;-1.930;2022-12-18T04:33:12;100464.46;;;-0.70;87.12
60642;BME280;46837;52.446;-1.930;2022-12-18T04:34:09;100465.73;;;-0.73;87.29
60642;BME280;46837;52.446;-1.930;2022-12-18T04:35:10;100463.20;;;-0.73;87.49
60642;BME280;46837;52.446;-1.930;2022-12-18T04:36:09;100465.02;;;-0.72;87.58
60642;BME280;46837;52.446;-1.930;2022-12-18T04:37:09;100462.48;;;-0.70;87.52
60642;BME280;46837;52.446;-1.930;2022-12-18T04:38:09;100461.12;;;-0.70;87.52
60642;BME280;46837;52.446;-1.930;2022-12-18T04:39:09;100461.59;;;-0.74;87.43
60642;BME280;46837;52.446;-1.930;2022-12-18T04:40:09;100457.89;;;-0.73;87.58
60642;BME280;46837;52.446;-1.930;2022-12-18T04:41:09;100454.59;;;-0.73;87.59
60642;BME280;46837;52.446;-1.930;2022-12-18T04:42:09;100451.37;;;-0.72;87.68
60642;BME280;46837;52.446;-1.930;2022-12-18T04:43:09;100449.94;;;-0.66;87.65
60642;BME280;46837;52.446;-1.930;2022-12-18T04:44:09;100442.68;;;-0.71;87.42
60642;BME280;46837;52.446;-1.930;2022-12-18T04:45:09;100438.67;;;-0.68;87.52
60642;BME280;46837;52.446;-1.930;2022-12-18T04:46:09;100434.21;;;-0.67;87.51
60642;BME280;46837;52.446;-1.930;2022-12-18T04:47:09;100434.37;;;-0.67;87.47
60642;BME280;46837;52.446;-1.930;2022-12-18T04:48:09;100427.16;;;-0.66;87.51
60642;BME280;46837;52.446;-1.930;2022-12-18T04:49:09;100427.52;;;-0.68;87.50
60642;BME280;46837;52.446;-1.930;2022-12-18T04:50:09;100426.14;;;-0.72;87.57
60642;BME280;46837;52.446;-1.930;2022-12-18T04:51:09;100419.38;;;-0.71;87.91
60642;BME280;46837;52.446;-1.930;2022-12-18T04:52:09;100418.62;;;-0.68;87.95
60642;BME280;46837;52.446;-1.930;2022-12-18T04:53:09;100415.57;;;-0.65;87.82
60642;BME280;46837;52.446;-1.930;2022-12-18T04:54:09;100413.12;;;-0.64;87.60
60642;BME280;46837;52.446;-1.930;2022-12-18T04:55:09;100408.81;;;-0.65;87.41
60642;BME280;46837;52.446;-1.930;2022-12-18T04:56:13;100406.54;;;-0.69;87.47
60642;BME280;46837;52.446;-1.930;2022-12-18T04:57:09;100401.81;;;-0.65;87.63
60642;BME280;46837;52.446;-1.930;2022-12-18T04:58:09;100396.01;;;-0.66;87.46
60642;BME280;46837;52.446;-1.930;2022-12-18T04:59:09;100390.26;;;-0.64;87.54
60642;BME280;46837;52.446;-1.930;2022-12-18T05:00:09;100386.83;;;-0.66;87.31
60642;BME280;46837;52.446;-1.930;2022-12-18T05:01:09;100385.35;;;-0.65;87.35
60642;BME280;46837;52.446;-1.930;2022-12-18T05:02:09;100387.99;;;-0.70;87.24
60642;BME280;46837;52.446;-1.930;2022-12-18T05:03:10;100385.94;;;-0.70;87.50
60642;BME280;46837;52.446;-1.930;2022-12-18T05:04:09;100383.30;;;-0.77;87.55
60642;BME280;46837;52.446;-1.930;2022-12-18T05:05:09;100384.04;;;-0.75;87.81
60642;BME280;46837;52.446;-1.930;2022-12-18T05:06:09;100383.15;;;-0.75;87.72
60642;BME280;46837;52.446;-1.930;2022-12-18T05:07:09;100383.51;;;-0.75;87.67
60642;BME280;46837;52.446;-1.930;2022-12-18T05:08:09;100384.76;;;-0.75;87.73
60642;BME280;46837;52.446;-1.930;2022-12-18T05:09:09;100376.91;;;-0.74;87.73
60642;BME280;46837;52.446;-1.930;2022-12-18T05:10:09;100378.52;;;-0.76;87.62
60642;BME280;46837;52.446;-1.930;2022-12-18T05:11:11;100375.50;;;-0.74;87.72
60642;BME280;46837;52.446;-1.930;2022-12-18T05:12:09;100375.82;;;-0.76;87.62
60642;BME280;46837;52.446;-1.930;2022-12-18T05:13:09;100379.28;;;-0.77;87.77
60642;BME280;46837;52.446;-1.930;2022-12-18T05:14:09;100379.17;;;-0.74;87.81
60642;BME280;46837;52.446;-1.930;2022-12-18T05:15:09;100382.38;;;-0.75;87.77
60642;BME280;46837;52.446;-1.930;2022-12-18T05:16:09;100385.25;;;-0.69;87.85
60642;BME280;46837;52.446;-1.930;2022-12-18T05:17:09;100384.77;;;-0.69;87.54
60642;BME280;46837;52.446;-1.930;2022-12-18T05:18:09;100390.24;;;-0.71;87.59
60642;BME280;46837;52.446;-1.930;2022-12-18T05:19:09;100391.25;;;-0.70;87.68
60642;BME280;46837;52.446;-1.930;2022-12-18T05:20:09;100400.32;;;-0.66;87.78
60642;BME280;46837;52.446;-1.930;2022-12-18T05:21:09;100403.83;;;-0.62;87.61
60642;BME280;46837;52.446;-1.930;2022-12-18T05:22:09;100410.04;;;-0.60;87.31
60642;BME280;46837;52.446;-1.930;2022-12-18T05:23:09;100412.98;;;-0.56;87.26
60642;BME280;46837;52.446;-1.930;2022-12-18T05:24:09;100411.05;;;-0.56;86.96
60642;BME280;46837;52.446;-1.930;2022-12-18T05:25:09;100408.36;;;-0.54;86.96
60642;BME280;46837;52.446;-1.930;2022-12-18T05:26:09;100415.00;;;-0.54;86.82
60642;BME280;46837;52.446;-1.930;2022-12-18T05:27:09;100414.43;;;-0.55;86.83
60642;BME280;46837;52.446;-1.930;2022-12-18T05:28:09;100411.62;;;-0.51;86.90
60642;BME280;46837;52.446;-1.930;2022-12-18T05:29:09;100414.85;;;-0.50;86.77
60642;BME280;46837;52.446;-1.930;2022-12-18T05:30:09;100413.48;;;-0.49;86.72
60642;BME280;46837;52.446;-1.930;2022-12-18T05:31:09;100412.20;;;-0.45;86.90
60642;BME280;46837;52.446;-1.930;2022-12-18T05:32:09;100405.33;;;-0.40;86.85
60642;BME280;46837;52.446;-1.930;2022-12-18T05:33:09;100405.85;;;-0.40;86.50
60642;BME280;46837;52.446;-1.930;2022-12-18T05:34:09;100407.25;;;-0.41;86.54
60642;BME280;46837;52.446;-1.930;2022-12-18T05:35:10;100407.42;;;-0.40;86.64
60642;BME280;46837;52.446;-1.930;2022-12-18T05:36:09;100408.71;;;-0.41;86.57
60642;BME280;46837;52.446;-1.930;2022-12-18T05:37:09;100408.02;;;-0.39;86.71
60642;BME280;46837;52.446;-1.930;2022-12-18T05:38:09;100403.19;;;-0.38;86.64
60642;BME280;46837;52.446;-1.930;2022-12-18T05:39:09;100399.65;;;-0.39;86.58
60642;BME280;46837;52.446;-1.930;2022-12-18T05:40:09;100403.15;;;-0.38;86.73
60642;BME280;46837;52.446;-1.930;2022-12-18T05:41:11;100401.14;;;-0.35;86.67
60642;BME280;46837;52.446;-1.930;2022-12-18T05:42:09;100398.65;;;-0.33;86.57